sensor_id;sensor_type;location;lat;lon;timestamp;P1;durP1;ratioP1;P2;durP2;ratioP2
6505;SDS011;3286;49.858;8.768;2023-04-24T00:01:53;2.80;;;1.10;;
6505;SDS011;3286;49.858;8.768;2023-04-24T00:04:20;0.93;;;0.90;;
6505;SDS011;3286;49.858;8.768;2023-04-24T00:06:48;3.43;;;0.90;;
6505;SDS011;3286;49.858;8.768;2023-04-24T00:09:18;1.07;;;0.90;;
6505;SDS011;3286;49.858;8.768;2023-04-24T00:11:45;4.00;;;1.23;;
6505;SDS011;3286;49.858;8.768;2023-04-24T00:14:12;1.30;;;0.97;;
6505;SDS011;3286;49.858;8.768;2023-04-24T00:16:38;1.07;;;0.90;;
6505;SDS011;3286;49.858;8.768;2023-04-24T00:19:05;1.37;;;0.90;;
6505;SDS011;3286;49.858;8.768;2023-04-24T00:21:32;4.13;;;1.00;;
6505;SDS011;3286;49.858;8.768;2023-04-24T00:24:00;1.13;;;0.70;;
6505;SDS011;3286;49.858;8.768;2023-04-24T00:26:26;3.70;;;1.10;;
6505;SDS011;3286;49.858;8.768;2023-04-24T00:28:53;0.80;;;0.80;;
6505;SDS011;3286;49.858;8.768;2023-04-24T00:31:19;1.77;;;0.83;;
6505;SDS011;3286;49.858;8.768;2023-04-24T00:33:46;3.87;;;0.97;;
6505;SDS011;3286;49.858;8.768;2023-04-24T00:36:13;1.07;;;0.80;;
6505;SDS011;3286;49.858;8.768;2023-04-24T00:38:39;1.30;;;1.10;;
6505;SDS011;3286;49.858;8.768;2023-04-24T00:41:07;2.50;;;1.07;;
6505;SDS011;3286;49.858;8.768;2023-04-24T00:43:34;1.40;;;0.80;;
6505;SDS011;3286;49.858;8.768;2023-04-24T00:46:01;1.80;;;1.07;;
6505;SDS011;3286;49.858;8.768;2023-04-24T00:48:28;2.80;;;1.10;;
6505;SDS011;3286;49.858;8.768;2023-04-24T00:50:56;1.70;;;1.00;;
6505;SDS011;3286;49.858;8.768;2023-04-24T00:53:23;3.27;;;1.10;;
6505;SDS011;3286;49.858;8.768;2023-04-24T00:55:50;2.73;;;1.10;;
6505;SDS011;3286;49.858;8.768;2023-04-24T00:58:18;1.17;;;0.90;;
6505;SDS011;3286;49.858;8.768;2023-04-24T01:00:45;1.93;;;1.10;;
6505;SDS011;3286;49.858;8.768;2023-04-24T01:03:12;0.80;;;0.80;;
6505;SDS011;3286;49.858;8.768;2023-04-24T01:05:40;1.30;;;0.90;;
6505;SDS011;3286;49.858;8.768;2023-04-24T01:08:07;1.27;;;0.90;;
6505;SDS011;3286;49.858;8.768;2023-04-24T01:10:34;1.17;;;1.00;;
6505;SDS011;3286;49.858;8.768;2023-04-24T01:13:02;2.73;;;0.80;;
6505;SDS011;3286;49.858;8.768;2023-04-24T01:15:30;1.77;;;1.00;;
6505;SDS011;3286;49.858;8.768;2023-04-24T01:17:57;1.50;;;0.90;;
6505;SDS011;3286;49.858;8.768;2023-04-24T01:20:24;1.57;;;1.10;;
6505;SDS011;3286;49.858;8.768;2023-04-24T01:22:53;1.00;;;0.87;;
6505;SDS011;3286;49.858;8.768;2023-04-24T01:25:21;4.60;;;1.20;;
6505;SDS011;3286;49.858;8.768;2023-04-24T01:27:48;2.20;;;1.10;;
6505;SDS011;3286;49.858;8.768;2023-04-24T01:30:15;2.60;;;1.00;;
6505;SDS011;3286;49.858;8.768;2023-04-24T01:32:41;3.77;;;1.27;;
6505;SDS011;3286;49.858;8.768;2023-04-24T01:35:10;1.57;;;0.93;;
6505;SDS011;3286;49.858;8.768;2023-04-24T01:37:37;2.33;;;1.03;;
6505;SDS011;3286;49.858;8.768;2023-04-24T01:40:06;4.23;;;1.17;;
6505;SDS011;3286;49.858;8.768;2023-04-24T01:42:34;0.70;;;0.70;;
6505;SDS011;3286;49.858;8.768;2023-04-24T01:45:02;2.30;;;1.00;;
6505;SDS011;3286;49.858;8.768;2023-04-24T01:47:30;1.57;;;1.07;;
6505;SDS011;3286;49.858;8.768;2023-04-24T01:49:57;3.70;;;1.07;;
6505;SDS011;3286;49.858;8.768;2023-04-24T01:52:24;1.83;;;1.13;;
6505;SDS011;3286;49.858;8.768;2023-04-24T01:54:52;1.00;;;0.90;;
6505;SDS011;3286;49.858;8.768;2023-04-24T01:57:22;2.07;;;1.10;;
6505;SDS011;3286;49.858;8.768;2023-04-24T01:59:49;2.83;;;1.00;;
6505;SDS011;3286;49.858;8.768;2023-04-24T02:02:16;3.93;;;1.33;;
6505;SDS011;3286;49.858;8.768;2023-04-24T02:04:43;2.63;;;1.13;;
6505;SDS011;3286;49.858;8.768;2023-04-24T02:07:09;1.50;;;0.90;;
6505;SDS011;3286;49.858;8.768;2023-04-24T02:09:36;1.60;;;1.00;;
6505;SDS011;3286;49.858;8.768;2023-04-24T02:12:03;1.80;;;0.90;;
6505;SDS011;3286;49.858;8.768;2023-04-24T02:14:31;2.13;;;0.90;;
6505;SDS011;3286;49.858;8.768;2023-04-24T02:16:57;2.67;;;0.90;;
6505;SDS011;3286;49.858;8.768;2023-04-24T02:19:24;4.60;;;0.90;;
6505;SDS011;3286;49.858;8.768;2023-04-24T02:21:50;2.80;;;0.90;;
6505;SDS011;3286;49.858;8.768;2023-04-24T02:24:17;2.07;;;1.00;;
6505;SDS011;3286;49.858;8.768;2023-04-24T02:26:44;3.13;;;1.10;;
6505;SDS011;3286;49.858;8.768;2023-04-24T02:29:10;1.70;;;1.03;;
6505;SDS011;3286;49.858;8.768;2023-04-24T02:31:38;2.50;;;1.13;;
6505;SDS011;3286;49.858;8.768;2023-04-24T02:34:05;1.40;;;0.97;;
6505;SDS011;3286;49.858;8.768;2023-04-24T02:36:31;1.30;;;1.20;;
6505;SDS011;3286;49.858;8.768;2023-04-24T02:38:58;2.30;;;1.00;;
6505;SDS011;3286;49.858;8.768;2023-04-24T02:41:26;2.20;;;1.37;;
6505;SDS011;3286;49.858;8.768;2023-04-24T02:43:56;1.93;;;0.90;;
6505;SDS011;3286;49.858;8.768;2023-04-24T02:46:23;2.47;;;1.10;;
6505;SDS011;3286;49.858;8.768;2023-04-24T02:48:51;1.53;;;1.00;;
6505;SDS011;3286;49.858;8.768;2023-04-24T02:51:18;2.23;;;1.23;;
6505;SDS011;3286;49.858;8.768;2023-04-24T02:53:44;4.10;;;1.10;;
6505;SDS011;3286;49.858;8.768;2023-04-24T02:56:11;1.67;;;1.00;;
6505;SDS011;3286;49.858;8.768;2023-04-24T02:58:38;3.20;;;1.20;;
6505;SDS011;3286;49.858;8.768;2023-04-24T03:01:04;2.40;;;1.10;;
6505;SDS011;3286;49.858;8.768;2023-04-24T03:03:31;1.70;;;1.00;;
6505;SDS011;3286;49.858;8.768;2023-04-24T03:05:59;1.17;;;0.97;;
6505;SDS011;3286;49.858;8.768;2023-04-24T03:08:25;3.00;;;0.90;;
6505;SDS011;3286;49.858;8.768;2023-04-24T03:10:52;1.17;;;1.03;;
6505;SDS011;3286;49.858;8.768;2023-04-24T03:13:19;2.40;;;0.97;;
6505;SDS011;3286;49.858;8.768;2023-04-24T03:15:45;1.10;;;1.00;;
6505;SDS011;3286;49.858;8.768;2023-04-24T03:18:12;1.70;;;0.93;;
6505;SDS011;3286;49.858;8.768;2023-04-24T03:20:38;1.30;;;1.20;;
6505;SDS011;3286;49.858;8.768;2023-04-24T03:23:06;0.90;;;0.90;;
6505;SDS011;3286;49.858;8.768;2023-04-24T03:25:33;1.40;;;0.80;;
6505;SDS011;3286;49.858;8.768;2023-04-24T03:28:00;4.70;;;1.00;;
6505;SDS011;3286;49.858;8.768;2023-04-24T03:30:26;2.00;;;1.10;;
6505;SDS011;3286;49.858;8.768;2023-04-24T03:32:53;1.10;;;1.00;;
6505;SDS011;3286;49.858;8.768;2023-04-24T03:35:19;0.80;;;0.80;;
6505;SDS011;3286;49.858;8.768;2023-04-24T03:37:47;2.83;;;0.97;;
6505;SDS011;3286;49.858;8.768;2023-04-24T03:40:15;0.87;;;0.87;;
6505;SDS011;3286;49.858;8.768;2023-04-24T03:42:42;2.97;;;1.10;;
6505;SDS011;3286;49.858;8.768;2023-04-24T03:45:09;1.50;;;0.97;;
6505;SDS011;3286;49.858;8.768;2023-04-24T03:47:36;2.37;;;1.00;;
6505;SDS011;3286;49.858;8.768;2023-04-24T03:50:02;4.03;;;1.20;;
6505;SDS011;3286;49.858;8.768;2023-04-24T03:52:29;3.47;;;1.10;;
6505;SDS011;3286;49.858;8.768;2023-04-24T03:54:56;1.23;;;1.10;;
6505;SDS011;3286;49.858;8.768;2023-04-24T03:57:24;2.43;;;1.10;;
6505;SDS011;3286;49.858;8.768;2023-04-24T03:59:51;1.60;;;0.93;;
6505;SDS011;3286;49.858;8.768;2023-04-24T04:02:18;1.77;;;1.10;;
6505;SDS011;3286;49.858;8.768;2023-04-24T04:04:45;1.27;;;1.17;;
6505;SDS011;3286;49.858;8.768;2023-04-24T04:07:11;0.90;;;0.90;;
6505;SDS011;3286;49.858;8.768;2023-04-24T04:09:38;1.17;;;1.00;;
6505;SDS011;3286;49.858;8.768;2023-04-24T04:12:05;2.20;;;1.10;;
6505;SDS011;3286;49.858;8.768;2023-04-24T04:14:33;1.40;;;1.13;;
6505;SDS011;3286;49.858;8.768;2023-04-24T04:16:59;1.33;;;1.20;;
6505;SDS011;3286;49.858;8.768;2023-04-24T04:19:26;3.33;;;1.30;;
6505;SDS011;3286;49.858;8.768;2023-04-24T04:21:52;2.07;;;1.13;;
6505;SDS011;3286;49.858;8.768;2023-04-24T04:24:21;3.47;;;1.37;;
6505;SDS011;3286;49.858;8.768;2023-04-24T04:26:49;1.40;;;1.30;;
6505;SDS011;3286;49.858;8.768;2023-04-24T04:29:16;1.83;;;1.50;;
6505;SDS011;3286;49.858;8.768;2023-04-24T04:31:44;2.97;;;1.40;;
6505;SDS011;3286;49.858;8.768;2023-04-24T04:34:10;3.97;;;1.70;;
6505;SDS011;3286;49.858;8.768;2023-04-24T04:36:37;4.03;;;1.80;;
6505;SDS011;3286;49.858;8.768;2023-04-24T04:39:05;3.60;;;2.00;;
6505;SDS011;3286;49.858;8.768;2023-04-24T04:41:31;1.97;;;1.77;;
6505;SDS011;3286;49.858;8.768;2023-04-24T04:44:00;3.10;;;1.80;;
6505;SDS011;3286;49.858;8.768;2023-04-24T04:46:27;2.17;;;1.70;;
6505;SDS011;3286;49.858;8.768;2023-04-24T04:48:58;2.07;;;1.70;;
6505;SDS011;3286;49.858;8.768;2023-04-24T04:51:25;3.47;;;2.10;;
6505;SDS011;3286;49.858;8.768;2023-04-24T04:53:52;2.17;;;1.83;;
6505;SDS011;3286;49.858;8.768;2023-04-24T04:56:18;2.60;;;2.27;;
6505;SDS011;3286;49.858;8.768;2023-04-24T04:58:45;2.40;;;2.07;;
6505;SDS011;3286;49.858;8.768;2023-04-24T05:01:12;2.93;;;1.87;;
6505;SDS011;3286;49.858;8.768;2023-04-24T05:03:38;1.90;;;1.80;;
6505;SDS011;3286;49.858;8.768;2023-04-24T05:06:07;2.63;;;1.90;;
6505;SDS011;3286;49.858;8.768;2023-04-24T05:08:33;1.90;;;1.60;;
6505;SDS011;3286;49.858;8.768;2023-04-24T05:11:00;1.70;;;1.60;;
6505;SDS011;3286;49.858;8.768;2023-04-24T05:13:27;1.70;;;1.60;;
6505;SDS011;3286;49.858;8.768;2023-04-24T05:15:53;2.13;;;1.90;;
6505;SDS011;3286;49.858;8.768;2023-04-24T05:18:20;1.60;;;1.50;;
6505;SDS011;3286;49.858;8.768;2023-04-24T05:20:46;2.80;;;1.97;;
6505;SDS011;3286;49.858;8.768;2023-04-24T05:23:14;2.97;;;1.90;;
6505;SDS011;3286;49.858;8.768;2023-04-24T05:25:41;2.13;;;1.80;;
6505;SDS011;3286;49.858;8.768;2023-04-24T05:28:08;3.33;;;2.43;;
6505;SDS011;3286;49.858;8.768;2023-04-24T05:30:34;2.50;;;2.17;;
6505;SDS011;3286;49.858;8.768;2023-04-24T05:33:01;4.27;;;2.47;;
6505;SDS011;3286;49.858;8.768;2023-04-24T05:35:28;2.80;;;2.03;;
6505;SDS011;3286;49.858;8.768;2023-04-24T05:37:54;4.50;;;2.03;;
6505;SDS011;3286;49.858;8.768;2023-04-24T05:40:22;2.07;;;1.87;;
6505;SDS011;3286;49.858;8.768;2023-04-24T05:42:49;3.67;;;2.00;;
6505;SDS011;3286;49.858;8.768;2023-04-24T05:45:16;5.30;;;2.30;;
6505;SDS011;3286;49.858;8.768;2023-04-24T05:47:42;2.93;;;2.33;;
6505;SDS011;3286;49.858;8.768;2023-04-24T05:50:09;2.30;;;2.00;;
6505;SDS011;3286;49.858;8.768;2023-04-24T05:52:37;4.70;;;2.27;;
6505;SDS011;3286;49.858;8.768;2023-04-24T05:55:03;2.27;;;2.03;;
6505;SDS011;3286;49.858;8.768;2023-04-24T05:57:32;5.20;;;2.63;;
6505;SDS011;3286;49.858;8.768;2023-04-24T05:59:59;2.93;;;2.37;;
6505;SDS011;3286;49.858;8.768;2023-04-24T06:02:26;3.97;;;2.40;;
6505;SDS011;3286;49.858;8.768;2023-04-24T06:04:54;3.07;;;2.27;;
6505;SDS011;3286;49.858;8.768;2023-04-24T06:07:20;3.00;;;2.53;;
6505;SDS011;3286;49.858;8.768;2023-04-24T06:09:47;3.47;;;2.70;;
6505;SDS011;3286;49.858;8.768;2023-04-24T06:12:13;2.97;;;2.43;;
6505;SDS011;3286;49.858;8.768;2023-04-24T06:14:41;2.60;;;2.40;;
6505;SDS011;3286;49.858;8.768;2023-04-24T06:17:08;3.13;;;2.47;;
6505;SDS011;3286;49.858;8.768;2023-04-24T06:19:35;3.13;;;2.40;;
6505;SDS011;3286;49.858;8.768;2023-04-24T06:22:01;4.27;;;2.20;;
6505;SDS011;3286;49.858;8.768;2023-04-24T06:24:28;2.90;;;2.20;;
6505;SDS011;3286;49.858;8.768;2023-04-24T06:26:55;3.30;;;2.37;;
6505;SDS011;3286;49.858;8.768;2023-04-24T06:29:22;3.87;;;2.20;;
6505;SDS011;3286;49.858;8.768;2023-04-24T06:31:50;2.70;;;2.30;;
6505;SDS011;3286;49.858;8.768;2023-04-24T06:34:17;2.47;;;2.03;;
6505;SDS011;3286;49.858;8.768;2023-04-24T06:36:43;3.33;;;2.50;;
6505;SDS011;3286;49.858;8.768;2023-04-24T06:39:10;3.40;;;2.47;;
6505;SDS011;3286;49.858;8.768;2023-04-24T06:41:37;3.17;;;2.60;;
6505;SDS011;3286;49.858;8.768;2023-04-24T06:44:05;2.67;;;2.40;;
6505;SDS011;3286;49.858;8.768;2023-04-24T06:46:31;3.67;;;2.57;;
6505;SDS011;3286;49.858;8.768;2023-04-24T06:49:00;3.07;;;2.73;;
6505;SDS011;3286;49.858;8.768;2023-04-24T06:51:26;4.50;;;2.80;;
6505;SDS011;3286;49.858;8.768;2023-04-24T06:53:53;3.80;;;3.03;;
6505;SDS011;3286;49.858;8.768;2023-04-24T06:56:21;4.13;;;3.37;;
6505;SDS011;3286;49.858;8.768;2023-04-24T06:58:48;4.20;;;3.73;;
6505;SDS011;3286;49.858;8.768;2023-04-24T07:01:15;5.40;;;3.43;;
6505;SDS011;3286;49.858;8.768;2023-04-24T07:03:41;3.63;;;3.10;;
6505;SDS011;3286;49.858;8.768;2023-04-24T07:06:09;6.53;;;3.27;;
6505;SDS011;3286;49.858;8.768;2023-04-24T07:08:37;4.07;;;3.17;;
6505;SDS011;3286;49.858;8.768;2023-04-24T07:11:04;5.43;;;3.10;;
6505;SDS011;3286;49.858;8.768;2023-04-24T07:13:31;5.80;;;3.57;;
6505;SDS011;3286;49.858;8.768;2023-04-24T07:15:57;5.67;;;3.20;;
6505;SDS011;3286;49.858;8.768;2023-04-24T07:18:24;3.83;;;2.70;;
6505;SDS011;3286;49.858;8.768;2023-04-24T07:20:50;6.20;;;2.90;;
6505;SDS011;3286;49.858;8.768;2023-04-24T07:23:19;5.20;;;3.33;;
6505;SDS011;3286;49.858;8.768;2023-04-24T07:25:46;4.33;;;3.10;;
6505;SDS011;3286;49.858;8.768;2023-04-24T07:28:13;3.47;;;2.77;;
6505;SDS011;3286;49.858;8.768;2023-04-24T07:30:39;3.47;;;3.13;;
6505;SDS011;3286;49.858;8.768;2023-04-24T07:33:06;6.13;;;3.67;;
6505;SDS011;3286;49.858;8.768;2023-04-24T07:35:32;4.63;;;3.07;;
6505;SDS011;3286;49.858;8.768;2023-04-24T07:38:00;5.93;;;3.30;;
6505;SDS011;3286;49.858;8.768;2023-04-24T07:40:28;7.77;;;3.17;;
6505;SDS011;3286;49.858;8.768;2023-04-24T07:42:54;3.87;;;3.23;;
6505;SDS011;3286;49.858;8.768;2023-04-24T07:45:21;6.50;;;3.47;;
6505;SDS011;3286;49.858;8.768;2023-04-24T07:47:49;4.37;;;2.70;;
6505;SDS011;3286;49.858;8.768;2023-04-24T07:50:16;19.40;;;3.63;;
6505;SDS011;3286;49.858;8.768;2023-04-24T07:52:43;4.60;;;2.50;;
6505;SDS011;3286;49.858;8.768;2023-04-24T07:55:10;4.37;;;2.70;;
6505;SDS011;3286;49.858;8.768;2023-04-24T07:57:38;3.50;;;2.77;;
6505;SDS011;3286;49.858;8.768;2023-04-24T08:00:05;4.10;;;2.97;;
6505;SDS011;3286;49.858;8.768;2023-04-24T08:02:33;3.30;;;2.73;;
6505;SDS011;3286;49.858;8.768;2023-04-24T08:04:59;3.10;;;2.70;;
6505;SDS011;3286;49.858;8.768;2023-04-24T08:07:26;3.93;;;2.90;;
6505;SDS011;3286;49.858;8.768;2023-04-24T08:09:52;5.17;;;2.77;;
6505;SDS011;3286;49.858;8.768;2023-04-24T08:12:19;3.13;;;2.80;;
6505;SDS011;3286;49.858;8.768;2023-04-24T08:14:47;5.67;;;2.60;;
6505;SDS011;3286;49.858;8.768;2023-04-24T08:17:14;3.40;;;2.60;;
6505;SDS011;3286;49.858;8.768;2023-04-24T08:19:40;3.10;;;2.20;;
6505;SDS011;3286;49.858;8.768;2023-04-24T08:22:12;4.23;;;2.50;;
6505;SDS011;3286;49.858;8.768;2023-04-24T08:24:39;3.13;;;2.53;;
6505;SDS011;3286;49.858;8.768;2023-04-24T08:27:05;2.63;;;1.70;;
6505;SDS011;3286;49.858;8.768;2023-04-24T08:29:32;2.10;;;1.90;;
6505;SDS011;3286;49.858;8.768;2023-04-24T08:32:00;4.47;;;2.10;;
6505;SDS011;3286;49.858;8.768;2023-04-24T08:34:26;2.00;;;1.70;;
6505;SDS011;3286;49.858;8.768;2023-04-24T08:36:53;4.43;;;1.93;;
6505;SDS011;3286;49.858;8.768;2023-04-24T08:39:20;2.00;;;1.77;;
6505;SDS011;3286;49.858;8.768;2023-04-24T08:41:46;4.23;;;1.97;;
6505;SDS011;3286;49.858;8.768;2023-04-24T08:44:15;3.33;;;1.80;;
6505;SDS011;3286;49.858;8.768;2023-04-24T08:46:42;1.97;;;1.80;;
6505;SDS011;3286;49.858;8.768;2023-04-24T08:49:12;2.10;;;1.73;;
6505;SDS011;3286;49.858;8.768;2023-04-24T08:51:41;2.03;;;1.60;;
6505;SDS011;3286;49.858;8.768;2023-04-24T08:54:08;4.83;;;1.70;;
6505;SDS011;3286;49.858;8.768;2023-04-24T08:56:35;2.30;;;1.90;;
6505;SDS011;3286;49.858;8.768;2023-04-24T08:59:04;2.00;;;1.70;;
6505;SDS011;3286;49.858;8.768;2023-04-24T09:01:31;2.40;;;2.10;;
6505;SDS011;3286;49.858;8.768;2023-04-24T09:03:59;2.67;;;2.40;;
6505;SDS011;3286;49.858;8.768;2023-04-24T09:06:30;2.63;;;1.90;;
6505;SDS011;3286;49.858;8.768;2023-04-24T09:08:57;2.20;;;2.00;;
6505;SDS011;3286;49.858;8.768;2023-04-24T09:11:26;2.40;;;2.20;;
6505;SDS011;3286;49.858;8.768;2023-04-24T09:13:53;3.27;;;2.27;;
6505;SDS011;3286;49.858;8.768;2023-04-24T09:16:20;2.07;;;1.87;;
6505;SDS011;3286;49.858;8.768;2023-04-24T09:18:48;2.30;;;2.03;;
6505;SDS011;3286;49.858;8.768;2023-04-24T09:21:14;2.20;;;1.90;;
6505;SDS011;3286;49.858;8.768;2023-04-24T09:23:43;2.27;;;2.03;;
6505;SDS011;3286;49.858;8.768;2023-04-24T09:26:09;3.17;;;2.87;;
6505;SDS011;3286;49.858;8.768;2023-04-24T09:28:36;3.10;;;2.03;;
6505;SDS011;3286;49.858;8.768;2023-04-24T09:31:05;2.97;;;1.97;;
6505;SDS011;3286;49.858;8.768;2023-04-24T09:33:33;1.70;;;1.60;;
6505;SDS011;3286;49.858;8.768;2023-04-24T09:36:00;2.40;;;1.93;;
6505;SDS011;3286;49.858;8.768;2023-04-24T09:38:30;2.20;;;2.00;;
6505;SDS011;3286;49.858;8.768;2023-04-24T09:41:00;2.80;;;2.10;;
6505;SDS011;3286;49.858;8.768;2023-04-24T09:43:28;2.80;;;1.90;;
6505;SDS011;3286;49.858;8.768;2023-04-24T09:45:55;4.53;;;1.90;;
6505;SDS011;3286;49.858;8.768;2023-04-24T09:48:29;2.50;;;2.20;;
6505;SDS011;3286;49.858;8.768;2023-04-24T09:50:56;3.63;;;2.13;;
6505;SDS011;3286;49.858;8.768;2023-04-24T09:53:23;2.17;;;1.97;;
6505;SDS011;3286;49.858;8.768;2023-04-24T09:55:51;2.23;;;2.00;;
6505;SDS011;3286;49.858;8.768;2023-04-24T09:58:19;2.10;;;1.87;;
6505;SDS011;3286;49.858;8.768;2023-04-24T10:00:52;2.70;;;2.27;;
6505;SDS011;3286;49.858;8.768;2023-04-24T10:03:22;2.33;;;1.93;;
6505;SDS011;3286;49.858;8.768;2023-04-24T10:05:51;5.87;;;2.07;;
6505;SDS011;3286;49.858;8.768;2023-04-24T10:08:18;2.47;;;2.27;;
6505;SDS011;3286;49.858;8.768;2023-04-24T10:10:45;2.63;;;2.20;;
6505;SDS011;3286;49.858;8.768;2023-04-24T10:13:13;2.70;;;2.00;;
6505;SDS011;3286;49.858;8.768;2023-04-24T10:15:42;2.30;;;2.10;;
6505;SDS011;3286;49.858;8.768;2023-04-24T10:18:09;7.70;;;2.20;;
6505;SDS011;3286;49.858;8.768;2023-04-24T10:20:37;3.13;;;2.23;;
6505;SDS011;3286;49.858;8.768;2023-04-24T10:23:05;3.73;;;2.47;;
6505;SDS011;3286;49.858;8.768;2023-04-24T10:25:33;2.17;;;1.97;;
6505;SDS011;3286;49.858;8.768;2023-04-24T10:28:02;2.47;;;2.17;;
6505;SDS011;3286;49.858;8.768;2023-04-24T10:30:29;3.43;;;2.00;;
6505;SDS011;3286;49.858;8.768;2023-04-24T10:33:01;1.83;;;1.70;;
6505;SDS011;3286;49.858;8.768;2023-04-24T10:35:31;2.93;;;2.00;;
6505;SDS011;3286;49.858;8.768;2023-04-24T10:38:01;2.30;;;2.00;;
6505;SDS011;3286;49.858;8.768;2023-04-24T10:40:35;2.00;;;1.73;;
6505;SDS011;3286;49.858;8.768;2023-04-24T10:43:02;2.57;;;2.00;;
6505;SDS011;3286;49.858;8.768;2023-04-24T10:45:31;1.67;;;1.50;;
6505;SDS011;3286;49.858;8.768;2023-04-24T10:47:58;1.83;;;1.73;;
6505;SDS011;3286;49.858;8.768;2023-04-24T10:50:29;3.83;;;1.70;;
6505;SDS011;3286;49.858;8.768;2023-04-24T10:53:09;1.80;;;1.70;;
6505;SDS011;3286;49.858;8.768;2023-04-24T10:55:40;2.40;;;1.80;;
6505;SDS011;3286;49.858;8.768;2023-04-24T10:58:08;2.20;;;1.80;;
6505;SDS011;3286;49.858;8.768;2023-04-24T11:00:36;3.40;;;1.70;;
6505;SDS011;3286;49.858;8.768;2023-04-24T11:03:05;2.57;;;2.10;;
6505;SDS011;3286;49.858;8.768;2023-04-24T11:05:52;2.27;;;1.90;;
6505;SDS011;3286;49.858;8.768;2023-04-24T11:08:24;3.57;;;2.30;;
6505;SDS011;3286;49.858;8.768;2023-04-24T11:11:07;2.10;;;1.90;;
6505;SDS011;3286;49.858;8.768;2023-04-24T11:16:37;2.37;;;2.17;;
6505;SDS011;3286;49.858;8.768;2023-04-24T11:19:18;2.50;;;2.00;;
6505;SDS011;3286;49.858;8.768;2023-04-24T11:21:48;2.17;;;1.97;;
6505;SDS011;3286;49.858;8.768;2023-04-24T11:24:22;2.87;;;2.03;;
6505;SDS011;3286;49.858;8.768;2023-04-24T11:26:54;3.37;;;2.10;;
6505;SDS011;3286;49.858;8.768;2023-04-24T11:29:22;1.90;;;1.50;;
6505;SDS011;3286;49.858;8.768;2023-04-24T11:32:13;2.00;;;1.80;;
6505;SDS011;3286;49.858;8.768;2023-04-24T11:34:52;1.90;;;1.80;;
6505;SDS011;3286;49.858;8.768;2023-04-24T11:37:21;1.87;;;1.77;;
6505;SDS011;3286;49.858;8.768;2023-04-24T11:39:50;2.40;;;1.90;;
6505;SDS011;3286;49.858;8.768;2023-04-24T11:42:17;2.80;;;2.37;;
6505;SDS011;3286;49.858;8.768;2023-04-24T11:44:44;5.57;;;2.53;;
6505;SDS011;3286;49.858;8.768;2023-04-24T11:47:12;3.17;;;2.17;;
6505;SDS011;3286;49.858;8.768;2023-04-24T11:49:39;3.40;;;2.60;;
6505;SDS011;3286;49.858;8.768;2023-04-24T11:52:07;6.80;;;2.97;;
6505;SDS011;3286;49.858;8.768;2023-04-24T11:54:34;3.30;;;2.73;;
6505;SDS011;3286;49.858;8.768;2023-04-24T11:57:03;4.17;;;2.90;;
6505;SDS011;3286;49.858;8.768;2023-04-24T11:59:34;3.60;;;2.93;;
6505;SDS011;3286;49.858;8.768;2023-04-24T12:02:02;3.33;;;2.83;;
6505;SDS011;3286;49.858;8.768;2023-04-24T12:04:37;5.63;;;3.43;;
6505;SDS011;3286;49.858;8.768;2023-04-24T12:07:06;3.83;;;2.97;;
6505;SDS011;3286;49.858;8.768;2023-04-24T12:09:40;6.27;;;3.30;;
6505;SDS011;3286;49.858;8.768;2023-04-24T12:12:08;4.97;;;3.10;;
6505;SDS011;3286;49.858;8.768;2023-04-24T12:14:41;4.07;;;2.90;;
6505;SDS011;3286;49.858;8.768;2023-04-24T12:17:08;5.37;;;3.43;;
6505;SDS011;3286;49.858;8.768;2023-04-24T12:19:35;3.70;;;3.10;;
6505;SDS011;3286;49.858;8.768;2023-04-24T12:22:03;6.87;;;3.53;;
6505;SDS011;3286;49.858;8.768;2023-04-24T12:24:31;2.50;;;2.23;;
6505;SDS011;3286;49.858;8.768;2023-04-24T12:26:58;2.60;;;2.40;;
6505;SDS011;3286;49.858;8.768;2023-04-24T12:29:26;3.07;;;2.57;;
6505;SDS011;3286;49.858;8.768;2023-04-24T12:31:53;2.43;;;2.23;;
6505;SDS011;3286;49.858;8.768;2023-04-24T12:34:20;6.13;;;2.10;;
6505;SDS011;3286;49.858;8.768;2023-04-24T12:36:48;3.47;;;2.80;;
6505;SDS011;3286;49.858;8.768;2023-04-24T12:39:15;6.60;;;2.00;;
6505;SDS011;3286;49.858;8.768;2023-04-24T12:41:53;3.30;;;2.40;;
6505;SDS011;3286;49.858;8.768;2023-04-24T12:44:28;3.87;;;2.40;;
6505;SDS011;3286;49.858;8.768;2023-04-24T12:46:56;3.47;;;2.67;;
6505;SDS011;3286;49.858;8.768;2023-04-24T12:49:22;4.07;;;2.77;;
6505;SDS011;3286;49.858;8.768;2023-04-24T12:51:49;3.97;;;2.53;;
6505;SDS011;3286;49.858;8.768;2023-04-24T12:54:16;2.40;;;2.20;;
6505;SDS011;3286;49.858;8.768;2023-04-24T12:56:42;3.80;;;2.60;;
6505;SDS011;3286;49.858;8.768;2023-04-24T12:59:10;2.80;;;2.50;;
6505;SDS011;3286;49.858;8.768;2023-04-24T13:01:37;3.20;;;2.70;;
6505;SDS011;3286;49.858;8.768;2023-04-24T13:04:04;4.20;;;2.70;;
6505;SDS011;3286;49.858;8.768;2023-04-24T13:06:31;4.93;;;2.63;;
6505;SDS011;3286;49.858;8.768;2023-04-24T13:08:58;5.27;;;2.80;;
6505;SDS011;3286;49.858;8.768;2023-04-24T13:11:24;3.47;;;2.50;;
6505;SDS011;3286;49.858;8.768;2023-04-24T13:13:51;4.43;;;3.20;;
6505;SDS011;3286;49.858;8.768;2023-04-24T13:16:19;4.03;;;2.78;;
6505;SDS011;3286;49.858;8.768;2023-04-24T13:18:45;2.90;;;2.60;;
6505;SDS011;3286;49.858;8.768;2023-04-24T13:21:12;8.13;;;2.90;;
6505;SDS011;3286;49.858;8.768;2023-04-24T13:23:39;5.05;;;2.55;;
6505;SDS011;3286;49.858;8.768;2023-04-24T13:26:06;4.20;;;3.00;;
6505;SDS011;3286;49.858;8.768;2023-04-24T13:28:32;3.37;;;2.57;;
6505;SDS011;3286;49.858;8.768;2023-04-24T13:30:59;3.47;;;2.95;;
6505;SDS011;3286;49.858;8.768;2023-04-24T13:33:27;4.35;;;2.47;;
6505;SDS011;3286;49.858;8.768;2023-04-24T13:35:54;2.40;;;2.20;;
6505;SDS011;3286;49.858;8.768;2023-04-24T13:38:21;2.58;;;2.30;;
6505;SDS011;3286;49.858;8.768;2023-04-24T13:40:48;3.97;;;2.23;;
6505;SDS011;3286;49.858;8.768;2023-04-24T13:43:16;5.67;;;2.13;;
6505;SDS011;3286;49.858;8.768;2023-04-24T13:45:43;1.97;;;1.87;;
6505;SDS011;3286;49.858;8.768;2023-04-24T13:48:10;2.58;;;1.95;;
6505;SDS011;3286;49.858;8.768;2023-04-24T13:50:40;2.70;;;2.00;;
6505;SDS011;3286;49.858;8.768;2023-04-24T13:53:06;3.93;;;2.70;;
6505;SDS011;3286;49.858;8.768;2023-04-24T13:55:33;3.58;;;2.13;;
6505;SDS011;3286;49.858;8.768;2023-04-24T13:58:00;2.87;;;2.37;;
6505;SDS011;3286;49.858;8.768;2023-04-24T14:00:28;2.63;;;1.98;;
6505;SDS011;3286;49.858;8.768;2023-04-24T14:02:56;2.80;;;1.80;;
6505;SDS011;3286;49.858;8.768;2023-04-24T14:05:22;3.63;;;2.47;;
6505;SDS011;3286;49.858;8.768;2023-04-24T14:07:51;4.13;;;2.63;;
6505;SDS011;3286;49.858;8.768;2023-04-24T14:10:18;5.43;;;2.57;;
6505;SDS011;3286;49.858;8.768;2023-04-24T14:12:44;3.07;;;2.20;;
6505;SDS011;3286;49.858;8.768;2023-04-24T14:15:11;3.20;;;2.00;;
6505;SDS011;3286;49.858;8.768;2023-04-24T14:17:38;2.97;;;2.20;;
6505;SDS011;3286;49.858;8.768;2023-04-24T14:20:05;3.97;;;2.37;;
6505;SDS011;3286;49.858;8.768;2023-04-24T14:22:34;4.27;;;2.37;;
6505;SDS011;3286;49.858;8.768;2023-04-24T14:25:02;3.93;;;2.20;;
6505;SDS011;3286;49.858;8.768;2023-04-24T14:27:29;7.47;;;2.00;;
6505;SDS011;3286;49.858;8.768;2023-04-24T14:29:56;3.40;;;2.13;;
6505;SDS011;3286;49.858;8.768;2023-04-24T14:32:22;4.03;;;2.30;;
6505;SDS011;3286;49.858;8.768;2023-04-24T14:34:49;4.67;;;2.43;;
6505;SDS011;3286;49.858;8.768;2023-04-24T14:37:16;2.50;;;2.03;;
6505;SDS011;3286;49.858;8.768;2023-04-24T14:39:42;3.50;;;2.03;;
6505;SDS011;3286;49.858;8.768;2023-04-24T14:42:10;3.03;;;2.30;;
6505;SDS011;3286;49.858;8.768;2023-04-24T14:44:37;3.57;;;2.37;;
6505;SDS011;3286;49.858;8.768;2023-04-24T14:47:04;2.50;;;2.17;;
6505;SDS011;3286;49.858;8.768;2023-04-24T14:49:31;4.67;;;2.67;;
6505;SDS011;3286;49.858;8.768;2023-04-24T14:51:57;2.90;;;2.17;;
6505;SDS011;3286;49.858;8.768;2023-04-24T14:54:24;3.20;;;2.10;;
6505;SDS011;3286;49.858;8.768;2023-04-24T14:56:51;2.00;;;1.80;;
6505;SDS011;3286;49.858;8.768;2023-04-24T14:59:19;5.00;;;2.10;;
6505;SDS011;3286;49.858;8.768;2023-04-24T15:01:45;4.80;;;2.23;;
6505;SDS011;3286;49.858;8.768;2023-04-24T15:04:12;3.40;;;2.03;;
6505;SDS011;3286;49.858;8.768;2023-04-24T15:06:39;2.50;;;2.10;;
6505;SDS011;3286;49.858;8.768;2023-04-24T15:09:05;5.53;;;2.50;;
6505;SDS011;3286;49.858;8.768;2023-04-24T15:11:32;4.67;;;2.33;;
6505;SDS011;3286;49.858;8.768;2023-04-24T15:13:59;2.90;;;2.27;;
6505;SDS011;3286;49.858;8.768;2023-04-24T15:16:27;2.60;;;2.23;;
6505;SDS011;3286;49.858;8.768;2023-04-24T15:18:53;3.90;;;2.27;;
6505;SDS011;3286;49.858;8.768;2023-04-24T15:21:22;3.70;;;2.00;;